x

9441102 - Westport, Wa (wptw1) Weather Station

2:36pm - Wed 20th Sep 2017 All times are PDT. -7 hours from GMT.

  • Wind
    9mph, 11mph gusts
  • Sea Temp 57°f
  • Air Temp 55°f
  • Sea Pressure 1007.3mb
  • 9441102 - Westport, Wa
  • 9441102 - Westport, Wa

More Historic Weather Station data

Upgrade to MSW Pro to gain access to the past 30 days of data for over 8000 Wavebouys and Weather Stations around the globe.

Join

Comparision Forecast

View Surf forecast
   
Wed 09/20 2:36pm 9 11 mph 1007.3mb 57f 55f
2:30pm 9 11 mph 1007.3mb 57f 55f
2:24pm 8 11 mph 1007.4mb 57f 55f
2:18pm 8 10 mph 1007.3mb 57f 54f
2:12pm 8 10 mph 1007.3mb 57f 55f
2:06pm 8 10 mph 1007.2mb 57f 54f
2:00pm 8 11 mph 1007.2mb 57f 55f
1:36pm 7 10 mph 1007.3mb 57f 54f
1:30pm 8 10 mph 1007.3mb 57f 54f
1:24pm 7 8 mph 1007.2mb 58f 54f
1:18pm 8 10 mph 1007.2mb 58f 54f
1:12pm 7 9 mph 1007.1mb 58f 54f
1:06pm 7 9 mph 1007mb 58f 54f
1:00pm 7 8 mph 1007mb 58f 55f
12:36pm 7 9 mph 1006.7mb 58f 55f
12:30pm 7 10 mph 1006.7mb 58f 54f
12:24pm 7 9 mph 1006.6mb 58f 54f
12:18pm 7 9 mph 1006.6mb 58f 54f
12:12pm 7 9 mph 1006.6mb 58f 53f
12:06pm 7 9 mph 1006.5mb 58f 53f
12:00pm 7 9 mph 1006.4mb 58f 53f
11:36am 7 9 mph 1006.2mb 58f 53f
11:30am 7 9 mph 1006.1mb 58f 53f
11:24am 7 9 mph 1006mb 58f 52f
11:18am 7 8 mph 1005.9mb 58f 52f
11:12am 6 8 mph 1005.8mb 58f 53f
11:06am 6 8 mph 1005.7mb 58f 53f
11:00am 5 7 mph 1005.7mb 58f 53f
10:36am 5 6 mph 1005.5mb 58f 52f
10:30am 3 6 mph 1005.4mb 58f 52f
10:24am 5 6 mph 1005.3mb 58f 52f
10:18am 3 5 mph 1005.3mb 58f 52f
10:12am 3 6 mph 1005.2mb 58f 52f
10:06am 3 5 mph 1005.2mb 58f 52f
10:00am 5 6 mph 1005.1mb 58f 52f
9:36am 3 6 mph 1004.9mb 58f 51f
9:30am 3 5 mph 1004.9mb 58f 51f
9:24am 5 6 mph 1004.8mb 58f 51f
9:18am 6 7 mph 1004.7mb 58f 50f
9:12am 6 7 mph 1004.6mb 58f 50f
9:06am 6 8 mph 1004.5mb 58f 50f
9:00am 5 7 mph 1004.5mb 58f 50f
8:36am 7 9 mph 1004.2mb 58f 50f
8:30am 7 9 mph 1004.1mb 58f 49f
8:24am 7 9 mph 1004.1mb 58f 50f
8:18am 8 9 mph 1004mb 58f 49f
8:12am 8 9 mph 1004mb 58f 49f
8:06am 8 10 mph 1004mb 58f 49f
8:00am 7 8 mph 1003.9mb 58f 49f
7:36am 7 9 mph 1003.8mb 58f 49f
7:30am 8 8 mph 1003.7mb 58f 49f
7:24am 8 9 mph 1003.7mb 58f 49f
7:18am 8 9 mph 1003.6mb 58f 49f
7:12am 8 9 mph 1003.5mb 58f 49f
7:06am 8 10 mph 1003.5mb 58f 49f
7:00am 9 10 mph 1003.4mb 58f 49f
6:36am 13 14 mph 1003.2mb 58f 49f
6:30am 13 14 mph 1003.2mb 58f 49f
6:24am 11 13 mph 1003.2mb 58f 50f
6:18am 11 13 mph 1003.2mb 58f 50f
6:12am 13 15 mph 1003.1mb 58f 50f
6:06am 13 16 mph 1003.1mb 58f 50f
6:00am 14 15 mph 1003.1mb 58f 50f
5:36am 15 17 mph 1002.9mb 58f 50f
5:30am 16 17 mph 1002.9mb 58f 51f
5:24am 15 17 mph 1002.9mb 58f 51f
5:18am 16 18 mph 1002.8mb 58f 51f
5:12am 16 20 mph 1002.8mb 58f 51f
5:06am 16 18 mph 1002.7mb 58f 51f
5:00am 14 17 mph 1002.7mb 58f 51f
4:36am 11 14 mph 1002.7mb 58f 51f
4:30am 11 16 mph 1002.7mb 58f 51f
4:24am 14 16 mph 1002.7mb 58f 51f
4:18am 13 16 mph 1002.7mb 58f 51f
4:12am 14 16 mph 1002.8mb 58f 51f
4:06am 10 11 mph 1002.8mb 58f 51f
4:00am 9 11 mph 1002.8mb 58f 51f
3:36am 10 14 mph 1002.9mb 58f 50f
3:30am 3 6 mph 1002.8mb 58f 50f
3:24am 5 7 mph 1002.8mb 58f 50f
3:18am 6 9 mph 1002.8mb 58f 51f
3:12am 6 8 mph 1002.8mb 58f 51f
3:06am 5 6 mph 1002.8mb 58f 51f
3:00am 5 6 mph 1002.8mb 58f 51f
2:36am 5 8 mph 1003.1mb 58f 51f
2:30am 6 9 mph 1003.1mb 58f 51f
2:24am 6 11 mph 1003.1mb 58f 51f
2:18am 7 10 mph 1003.1mb 58f 51f
2:12am 8 10 mph 1003mb 58f 51f
2:06am 8 10 mph 1003mb 58f 51f
2:00am 7 10 mph 1003mb 58f 51f
1:36am 7 9 mph 1003.3mb 58f 52f
1:30am 7 9 mph 1003.4mb 58f 52f
1:24am 6 9 mph 1003.5mb 58f 52f
1:18am 8 10 mph 1003.6mb 58f 52f
1:12am 7 10 mph 1003.6mb 58f 52f
1:06am 7 9 mph 1003.8mb 58f 52f
1:00am 6 9 mph 1003.9mb 58f 52f
12:36am 6 8 mph 1004.1mb 58f 52f
12:30am 6 8 mph 1004.3mb 58f 52f
12:24am 6 8 mph 1004.3mb 58f 52f
12:18am 6 8 mph 1004.4mb 58f 52f
12:12am 6 8 mph 1004.5mb 58f 52f
12:06am 7 9 mph 1004.7mb 58f 52f
12:00am 6 8 mph 1004.8mb 58f 52f
Tue 09/19 11:36pm 7 8 mph 1005.2mb 58f 52f
11:30pm 7 8 mph 1005.3mb 58f 52f
11:24pm 6 7 mph 1005.4mb 58f 52f
11:18pm 6 8 mph 1005.5mb 58f 52f
11:12pm 7 8 mph 1005.5mb 58f 53f
11:06pm 5 6 mph 1005.6mb 58f 53f
11:00pm 3 6 mph 1005.6mb 58f 53f
10:36pm 8 13 mph 1006.1mb 58f 54f
10:30pm 11 15 mph 1006.3mb 58f 54f
10:24pm 10 14 mph 1006.4mb 58f 54f
10:18pm 7 8 mph 1006.4mb 58f 55f
10:12pm 5 6 mph 1006.4mb 58f 55f
10:06pm 6 6 mph 1006.4mb 58f 55f
10:00pm 5 6 mph 1006.5mb 58f 55f
9:36pm 3 6 mph 1006.8mb 58f 55f
9:30pm 3 5 mph 1006.9mb 58f 55f
9:24pm 5 6 mph 1006.9mb 58f 55f
9:18pm 6 7 mph 1007mb 58f 54f
9:12pm 7 8 mph 1007mb 58f 54f
9:06pm 3 5 mph 1007.1mb 58f 55f
9:00pm 3 5 mph 1007.1mb 58f 55f
8:36pm 5 6 mph 1007.4mb 58f 55f
8:30pm 6 6 mph 1007.5mb 58f 55f
8:24pm 6 6 mph 1007.5mb 59f 56f
8:18pm 6 7 mph 1007.6mb 59f 55f
8:12pm 6 7 mph 1007.7mb 59f 56f
8:06pm 6 7 mph 1007.7mb 59f 55f
8:00pm 6 6 mph 1007.7mb 59f 55f
7:36pm 6 7 mph 1007.8mb 59f 55f
7:30pm 6 6 mph 1007.8mb 59f 55f
7:24pm 6 7 mph 1007.9mb 59f 55f
7:18pm 5 6 mph 1008mb 59f 56f
7:12pm 7 8 mph 1008.2mb 59f 56f
7:06pm 5 7 mph 1008.2mb 59f 56f
7:00pm 6 8 mph 1008.3mb 59f 56f
6:36pm 7 9 mph 1008.4mb 58f 56f
6:30pm 7 9 mph 1008.4mb 58f 56f
6:24pm 7 9 mph 1008.4mb 58f 56f
6:18pm 7 9 mph 1008.4mb 58f 56f
6:12pm 6 8 mph 1008.5mb 58f 56f
6:06pm 6 8 mph 1008.5mb 58f 56f
6:00pm 6 8 mph 1008.5mb 58f 56f
5:36pm 7 8 mph - 58f 56f
5:30pm 7 8 mph - 58f 56f
5:24pm 7 9 mph - 58f 56f
5:18pm 8 9 mph - 58f 56f
5:12pm 7 9 mph - 58f 56f
5:06pm 7 8 mph - 58f 56f
5:00pm 7 8 mph - 58f 56f
4:36pm 8 9 mph 1008.9mb 58f 55f
4:30pm 8 9 mph 1008.9mb 58f 55f
4:24pm 8 9 mph 1008.9mb 58f 55f
4:18pm 9 10 mph 1008.9mb 58f 55f
4:12pm 8 10 mph 1008.9mb 58f 55f
4:06pm 9 11 mph 1009mb 58f 55f
4:00pm 9 10 mph 1009.1mb 58f 55f
3:36pm 10 11 mph 1009mb 58f 55f
3:30pm 10 11 mph 1009mb 58f 55f
3:24pm 10 11 mph 1008.9mb 58f 55f
3:18pm 10 11 mph 1008.9mb 58f 55f
3:12pm 10 11 mph 1008.9mb 58f 56f
3:06pm 11 13 mph 1008.9mb 58f 56f
3:00pm 10 14 mph 1008.9mb 58f 56f
2:54pm 10 13 mph 1008.9mb 58f 56f
2:48pm 10 14 mph 1008.8mb 58f 56f
2:36pm 11 13 mph 1008.8mb 58f 56f
2:30pm 11 14 mph 1008.8mb 58f 56f
2:24pm 13 15 mph 1008.7mb 58f 56f
2:18pm 14 16 mph 1008.7mb 58f 56f
2:12pm 14 16 mph 1008.7mb 58f 56f
2:06pm 13 15 mph 1008.7mb 58f 56f
2:00pm 13 15 mph 1008.8mb 58f 55f
1:54pm 13 15 mph 1008.8mb 58f 55f
1:48pm 13 15 mph 1008.8mb 58f 55f
1:36pm 13 15 mph 1008.8mb 58f 55f
1:30pm 13 15 mph 1008.7mb 58f 55f
1:24pm 11 14 mph 1008.7mb 58f 55f
1:18pm 13 15 mph 1008.7mb 58f 55f
1:12pm 13 15 mph 1008.7mb 58f 56f
1:06pm 13 15 mph 1008.7mb 58f 56f
1:00pm 14 15 mph 1008.7mb 58f 56f
12:54pm 13 15 mph 1008.7mb 58f 56f
12:48pm 13 15 mph 1008.7mb 58f 55f
12:36pm 13 15 mph 1008.7mb 58f 56f
12:30pm 14 16 mph 1008.7mb 58f 56f
12:24pm 14 16 mph 1008.7mb 57f 56f
12:18pm 15 16 mph 1008.5mb 57f 56f
12:12pm 15 16 mph 1008.6mb 57f 56f
12:06pm 15 16 mph 1008.5mb 57f 56f
12:00pm 15 16 mph 1008.5mb 57f 56f
11:54am 15 17 mph 1008.4mb 57f 56f
11:48am 15 16 mph 1008.3mb 57f 56f
11:36am 15 16 mph 1008.2mb 57f 56f
11:30am 14 15 mph 1008mb 57f 56f
11:24am 14 16 mph 1007.9mb 57f 56f
11:18am 15 16 mph 1007.9mb 57f 57f
11:12am 14 16 mph 1007.9mb 57f 56f
11:06am 15 16 mph 1007.7mb 57f 56f
11:00am 11 15 mph 1007.6mb 57f 56f
10:54am 11 16 mph 1007.6mb 57f 56f
10:48am 13 17 mph 1007.6mb 57f 56f
10:36am 13 15 mph 1007.4mb 57f 56f
10:30am 13 15 mph 1007.4mb 57f 56f
10:24am 14 15 mph 1007.4mb 57f 56f
10:18am 14 16 mph 1007.3mb 57f 56f
10:12am 14 15 mph 1007.2mb 57f 56f
10:06am 14 16 mph 1007.1mb 57f 56f
10:00am 13 16 mph 1007mb 57f 56f
9:54am 14 16 mph 1007mb 57f 56f
9:48am 13 15 mph 1006.9mb 57f 56f
9:36am 14 15 mph 1006.8mb 57f 56f
9:30am 13 14 mph 1006.8mb 57f 56f
9:24am 14 15 mph 1006.8mb 57f 56f
9:18am 13 14 mph 1006.7mb 57f 56f
9:12am 14 14 mph 1006.6mb 57f 56f
9:06am 11 14 mph 1006.6mb 57f 56f
9:00am 10 11 mph 1006.5mb 57f 56f
8:54am 9 11 mph 1006.5mb 57f 56f
8:48am 8 9 mph 1006.4mb 57f 56f
8:36am 8 10 mph 1006.3mb 57f 56f
8:30am 9 10 mph 1006.2mb 57f 55f
8:24am 8 10 mph 1006.1mb 57f 55f
8:18am 8 9 mph 1006mb 57f 55f
8:12am 6 8 mph 1006mb 57f 55f
8:06am 8 9 mph 1006mb 57f 55f
8:00am 6 9 mph 1005.9mb 57f 55f
7:54am 6 8 mph 1005.9mb 57f 55f
7:48am 8 9 mph 1006mb 57f 55f
7:36am 6 7 mph 1005.8mb 57f 55f
7:30am 7 9 mph 1005.8mb 57f 55f
7:24am 7 8 mph 1005.8mb 57f 54f
7:18am 7 8 mph 1005.7mb 57f 55f
7:12am 8 9 mph 1005.7mb 57f 54f
7:06am 6 9 mph 1005.6mb 57f 53f
7:00am 9 10 mph 1005.5mb 57f 54f
6:54am 9 10 mph 1005.5mb 57f 54f
6:48am 8 10 mph 1005.5mb 57f 54f
6:36am 10 14 mph 1005.4mb 57f 54f
6:30am 10 15 mph 1005.4mb 57f 54f
6:24am 13 17 mph 1005.4mb 57f 54f
6:18am 10 16 mph 1005.3mb 57f 54f
6:12am 14 17 mph 1005.2mb 57f 55f
6:06am 10 15 mph 1005.1mb 57f 55f
6:00am 10 14 mph 1005.2mb 57f 54f
5:54am 10 16 mph 1005.1mb 57f 54f
5:48am 9 11 mph 1005mb 57f 54f
5:36am 11 15 mph 1005mb 57f 54f
5:30am 11 15 mph 1004.9mb 57f 54f
5:24am 10 14 mph 1004.9mb 57f 54f
5:18am 10 13 mph 1004.8mb 57f 54f
5:12am 10 14 mph 1004.8mb 57f 54f
5:06am 8 11 mph 1004.7mb 57f 54f
5:00am 10 13 mph 1004.6mb 57f 54f
4:54am 10 13 mph 1004.5mb 57f 55f
4:48am 10 13 mph 1004.5mb 57f 55f
4:36am 14 16 mph 1004.6mb 57f 55f
4:30am 14 15 mph 1004.7mb 57f 55f
4:24am 14 17 mph 1004.7mb 57f 55f
4:18am 11 14 mph 1004.8mb 57f 55f
4:12am 11 14 mph 1004.8mb 57f 55f
4:06am 13 16 mph 1004.7mb 57f 55f
4:00am 14 17 mph 1004.6mb 57f 55f
3:54am 15 16 mph 1004.5mb 57f 55f
3:48am 13 16 mph 1004.4mb 57f 55f
3:36am 6 9 mph 1004.4mb 57f 53f
3:30am 8 11 mph 1004.4mb 57f 53f
3:24am 8 10 mph 1004.4mb 57f 53f
3:18am 7 9 mph 1004.4mb 57f 53f
3:12am 8 11 mph 1004.3mb 57f 52f
3:06am 9 13 mph 1004.3mb 57f 53f
3:00am 10 13 mph 1004.2mb 57f 52f
2:54am 11 14 mph 1004.2mb 57f 52f
2:48am 13 15 mph 1004.3mb 57f 52f
2:36am 10 14 mph 1004.4mb 57f 52f
2:30am 10 13 mph 1004.4mb 57f 52f
2:24am 9 11 mph 1004.3mb 57f 52f
2:18am 9 11 mph 1004.3mb 57f 52f
2:12am 9 11 mph 1004.3mb 57f 51f
2:06am 10 13 mph 1004.3mb 57f 52f
2:00am 11 13 mph 1004.3mb 57f 52f
1:54am 11 13 mph 1004.2mb 57f 51f
1:48am 8 11 mph 1004.4mb 57f 52f
1:36am 9 11 mph 1004.4mb 57f 52f
1:30am 10 13 mph 1004.3mb 57f 52f
1:24am 8 11 mph 1004.3mb 57f 52f
1:18am 8 13 mph 1004.3mb 57f 52f
1:12am 10 14 mph 1004.3mb 57f 53f
1:06am 9 11 mph 1004.3mb 57f 53f
1:00am 8 10 mph 1004.3mb 57f 53f
12:54am 9 11 mph 1004.3mb 57f 53f
12:48am 9 13 mph 1004.5mb 57f 54f
12:36am 8 11 mph 1004.6mb 57f 53f
12:30am 9 13 mph 1004.7mb 57f 52f
12:24am 10 13 mph 1004.6mb 57f 52f
12:18am 8 11 mph 1004.6mb 57f 52f
12:12am 6 11 mph 1004.6mb 57f 53f
12:06am 10 15 mph 1004.7mb 57f 53f
12:00am 11 14 mph 1004.6mb 57f 53f
Mon 09/18 11:54pm 7 10 mph 1004.5mb 57f 52f
11:48pm 11 17 mph 1004.5mb 57f 52f
11:36pm 11 16 mph 1004.4mb 57f 52f
11:30pm 15 21 mph 1004.5mb 57f 53f
11:24pm 16 22 mph 1004.4mb 57f 53f
11:18pm 17 22 mph 1004.5mb 57f 53f
11:12pm 15 20 mph 1004.4mb 56f 54f
11:06pm 15 20 mph 1004.5mb 56f 54f
11:00pm 15 20 mph 1004.4mb 56f 54f
10:54pm 15 20 mph 1004.4mb 56f 55f
10:48pm 13 20 mph 1004.4mb 56f 55f
10:36pm 9 13 mph 1004.4mb 56f 55f
10:30pm 11 14 mph 1004.4mb 56f 55f
10:24pm 13 16 mph 1004.4mb 56f 55f
10:18pm 13 17 mph 1004.4mb 56f 55f
10:12pm 8 11 mph 1004.5mb 56f 54f
10:06pm 9 11 mph 1004.4mb 56f 55f
10:00pm 9 13 mph 1004.5mb 56f 55f
9:54pm 9 14 mph 1004.5mb 56f 55f
9:48pm 8 11 mph 1004.5mb 56f 53f
9:36pm 8 10 mph 1004.5mb 56f 52f
9:30pm 8 10 mph 1004.6mb 56f 52f
9:24pm 7 10 mph 1004.7mb 56f 52f
9:18pm 7 9 mph 1004.7mb 56f 52f
9:12pm 7 10 mph 1004.8mb 56f 53f
9:06pm 6 8 mph 1004.9mb 56f 52f
9:00pm 8 11 mph 1004.9mb 56f 53f
8:54pm 9 13 mph 1005mb 56f 53f
8:48pm 8 14 mph 1005mb 56f 53f
8:36pm 10 16 mph 1004.9mb 56f 53f
8:30pm 11 15 mph 1004.8mb 56f 53f
8:24pm 10 13 mph 1004.8mb 56f 53f
8:18pm 9 14 mph 1004.8mb 56f 52f
8:12pm 11 16 mph 1004.8mb 56f 52f
8:06pm 11 17 mph 1004.8mb 56f 53f
8:00pm 14 23 mph 1004.8mb 56f 52f
7:54pm 17 23 mph 1005mb 56f 53f
7:48pm 15 18 mph 1005.1mb 56f 54f
7:36pm 9 15 mph 1005.3mb 56f 54f
7:30pm 10 14 mph 1005.2mb 56f 54f
7:24pm 10 15 mph 1005.3mb 56f 53f
7:18pm 10 17 mph 1005.5mb 56f 54f
7:12pm 10 16 mph 1005.5mb 56f 54f
7:06pm 10 16 mph 1005.6mb 56f 53f
7:00pm 10 17 mph 1005.6mb 56f 53f
6:54pm 11 15 mph 1005.6mb 56f 53f
6:48pm 11 16 mph 1005.5mb 56f 53f
6:36pm 13 20 mph 1005.6mb 56f 55f
6:30pm 9 16 mph 1005.6mb 56f 55f
6:24pm 11 18 mph 1005.6mb 56f 55f
6:18pm 9 13 mph 1005.6mb 56f 55f
6:12pm 9 14 mph 1005.7mb 56f 55f
6:06pm 10 18 mph 1005.7mb 56f 55f
6:00pm 10 15 mph 1005.7mb 56f 55f
5:54pm 11 16 mph 1005.7mb 56f 55f
5:48pm 11 18 mph 1005.8mb 56f 55f
5:36pm 11 16 mph 1005.7mb 56f 56f
5:30pm 10 15 mph 1005.7mb 56f 55f
5:24pm 11 15 mph 1005.7mb 56f 55f
5:18pm 9 15 mph 1005.8mb 56f 55f
5:12pm 11 16 mph 1005.9mb 56f 55f
5:06pm 13 18 mph 1006mb 56f 55f
5:00pm 11 21 mph 1006.2mb 56f 55f
4:54pm 16 25 mph 1006.2mb 56f 55f
4:48pm 15 22 mph 1006.2mb 56f 55f
4:36pm 14 21 mph 1006.4mb 56f 55f
4:30pm 16 24 mph 1006.2mb 56f 55f
4:24pm 18 25 mph 1006.4mb 56f 55f
4:18pm 17 25 mph 1006.6mb 56f 56f
4:12pm 16 25 mph 1006.6mb 56f 55f
4:06pm 13 21 mph 1006.7mb 56f 56f
4:00pm 15 21 mph 1006.7mb 56f 56f
3:54pm 13 21 mph 1006.8mb 56f 56f
3:48pm 14 18 mph 1006.8mb 56f 56f
3:36pm 14 20 mph 1006.8mb 56f 56f
3:30pm 13 20 mph 1006.8mb 56f 56f
3:24pm 13 18 mph 1006.9mb 56f 56f
3:18pm 13 17 mph 1007mb 56f 55f
3:12pm 14 20 mph 1007.1mb 56f 55f
3:06pm 14 17 mph 1007.1mb 56f 55f
3:00pm 13 18 mph 1007.2mb 56f 56f
2:54pm 14 20 mph 1007.3mb 56f 56f
2:48pm 14 20 mph 1007.5mb 56f 56f
2:36pm 17 23 mph 1007.7mb 56f 55f
2:30pm 16 24 mph 1007.7mb 56f 55f
2:24pm 14 21 mph 1007.6mb 56f 56f
2:18pm 15 24 mph 1007.7mb 56f 56f
2:12pm 14 22 mph 1007.7mb 56f 56f
2:06pm 16 22 mph 1007.7mb 56f 56f
2:00pm 15 24 mph 1007.8mb 56f 56f
1:54pm 17 23 mph 1007.8mb 56f 56f
1:48pm 18 22 mph 1007.8mb 56f 56f
1:36pm 16 23 mph 1007.9mb 56f 58f
1:30pm 16 22 mph 1008mb 56f 57f
1:24pm 15 24 mph 1008.1mb 56f 56f
1:18pm 11 22 mph 1008.1mb 56f 56f
1:12pm 16 24 mph 1008.1mb 56f 56f
1:06pm 16 22 mph 1008mb 56f 56f
1:00pm 16 23 mph 1008mb 56f 56f
12:54pm 17 24 mph 1008mb 56f 56f
12:48pm 18 25 mph 1008.1mb 56f 56f
12:36pm 16 24 mph 1008mb 56f 56f
12:30pm 16 24 mph 1008mb 56f 57f
12:24pm 10 21 mph 1007.9mb 56f 58f
12:18pm 15 22 mph 1007.9mb 56f 57f
12:12pm 18 24 mph 1007.9mb 56f 56f
12:06pm 17 24 mph 1008mb 56f 56f
12:00pm 17 24 mph 1008mb 56f 56f
11:54am 16 22 mph 1008.1mb 56f 57f
11:48am 16 22 mph 1008.1mb 56f 56f
11:36am 16 22 mph 1008.2mb 56f 56f
11:30am 16 22 mph 1008.1mb 56f 56f
11:24am 18 22 mph 1008.1mb 56f 55f
11:18am 18 23 mph 1008.1mb 56f 55f
11:12am 18 23 mph 1008.1mb 56f 55f
11:06am 17 22 mph 1008mb 56f 56f
11:00am 16 21 mph 1008mb 56f 57f
10:54am 14 21 mph 1008mb 56f 57f
10:48am 14 22 mph 1008mb 56f 57f
10:36am 11 17 mph 1008.1mb 56f 58f
10:30am 13 18 mph 1008.2mb 56f 57f
10:24am 14 18 mph 1008.3mb 56f 57f
10:18am 13 18 mph 1008.2mb 56f 58f
10:12am 9 17 mph 1008.2mb 56f 57f
10:06am 11 16 mph 1008.3mb 56f 57f
10:00am 11 17 mph 1008.3mb 56f 57f
9:54am 8 13 mph 1008.3mb 56f 57f
9:48am 9 14 mph 1008.4mb 56f 57f
9:36am 7 13 mph 1008.3mb 56f 56f
9:30am 8 11 mph 1008.2mb 56f 56f
9:24am 9 14 mph 1008.2mb 56f 56f
9:18am 9 13 mph 1008.2mb 56f 56f
9:12am 7 11 mph 1008mb 56f 56f
9:06am 8 11 mph 1008mb 56f 55f
9:00am 7 10 mph 1008.1mb 56f 55f
8:54am 7 11 mph 1008.1mb 56f 55f
8:48am 6 10 mph 1008.1mb 56f 55f
8:36am 6 10 mph 1008.1mb 56f 55f
8:30am 8 10 mph 1008.2mb 56f 55f
8:24am 7 11 mph 1008.2mb 56f 55f
8:18am 7 10 mph 1008.2mb 56f 55f
8:12am 8 11 mph 1008.3mb 56f 55f
8:06am 8 10 mph 1008.3mb 56f 55f
8:00am 6 9 mph 1008.3mb 56f 54f
7:54am 8 10 mph 1008.3mb 56f 54f
7:48am 6 8 mph 1008.3mb 56f 54f
7:36am 7 9 mph 1008.4mb 56f 54f
7:30am 6 7 mph 1008.3mb 56f 53f
7:24am 7 8 mph 1008.2mb 56f 54f
7:18am 8 9 mph 1008.3mb 56f 54f
7:12am 9 10 mph 1008.3mb 56f 54f
7:06am 9 10 mph 1008.1mb 56f 54f
7:00am 9 11 mph 1008.1mb 56f 54f
6:54am 10 11 mph 1008.1mb 56f 54f
6:48am 9 10 mph 1008.1mb 56f 54f
6:36am 10 11 mph 1008mb 56f 54f
6:30am 11 14 mph 1008mb 56f 54f
6:24am 11 14 mph 1008.1mb 56f 54f
6:18am 10 13 mph 1008.1mb 56f 54f
6:12am 13 16 mph 1008.1mb 56f 54f
6:06am 14 17 mph 1008.1mb 56f 54f
6:00am 13 15 mph 1008mb 56f 54f
5:54am 13 16 mph 1008.1mb 56f 54f
5:48am 14 16 mph 1008mb 56f 54f
5:36am 14 18 mph 1008mb 56f 53f
5:30am 16 20 mph 1007.9mb 56f 53f
5:24am 15 20 mph 1007.9mb 56f 53f
5:18am 11 14 mph 1007.9mb 56f 54f
5:12am 9 11 mph 1007.9mb 56f 54f
5:06am 8 11 mph 1007.9mb 56f 54f
5:00am 8 11 mph 1008mb 56f 53f
4:54am 8 11 mph 1008mb 56f 53f
4:48am 7 10 mph 1008.1mb 56f 53f
4:36am 7 8 mph 1008.2mb 56f 53f
4:30am 7 8 mph 1008.2mb 56f 53f
4:24am 7 8 mph 1008.2mb 56f 53f
4:18am 6 8 mph 1008.3mb 56f 53f
4:12am 7 8 mph 1008.3mb 56f 53f
4:06am 7 9 mph 1008.2mb 56f 53f
4:00am 7 9 mph 1008.3mb 56f 53f
3:54am 7 10 mph 1008.4mb 56f 53f
3:48am 8 10 mph 1008.4mb 56f 53f
3:36am 6 8 mph 1008.5mb 56f 53f
3:30am 8 13 mph 1008.5mb 56f 53f
3:24am 9 11 mph 1008.5mb 56f 53f
3:18am 8 13 mph 1008.7mb 56f 54f
3:12am 8 13 mph 1008.8mb 56f 54f
3:06am 6 8 mph 1008.9mb 56f 54f
3:00am 5 8 mph 1008.9mb 56f 54f
2:54am 7 9 mph 1009mb 56f 54f
2:48am 8 9 mph 1009mb 56f 54f
2:36am 7 8 mph 1009mb 56f 53f
2:30am 6 8 mph 1009mb 56f 54f
2:24am 6 8 mph 1009mb 56f 54f
2:18am 6 8 mph 1009.1mb 56f 55f
2:12am 7 10 mph 1009.1mb 56f 55f
2:06am 9 10 mph 1009.2mb 56f 55f
2:00am 9 11 mph 1009.1mb 56f 55f
1:54am 8 10 mph 1009.2mb 56f 55f
1:48am 9 11 mph 1009.2mb 56f 55f
1:36am 9 11 mph 1009.1mb 56f 56f
1:30am 9 11 mph 1009mb 56f 56f
1:24am 10 13 mph 1009mb 56f 57f
1:18am 11 13 mph 1009.1mb 56f 57f
1:12am 11 14 mph 1009.1mb 56f 57f
1:06am 13 14 mph 1009.1mb 56f 57f
1:00am 10 13 mph 1009mb 56f 57f
12:54am 10 11 mph 1009mb 56f 57f
12:48am 10 11 mph 1009.1mb 56f 57f
12:36am 10 11 mph 1009.1mb 56f 57f
12:30am 10 14 mph 1009.1mb 56f 56f
12:24am 11 14 mph 1009.2mb 56f 55f
12:18am 11 17 mph 1009.3mb 56f 55f
12:12am 14 18 mph 1009.4mb 56f 55f
12:06am 9 13 mph 1009.4mb 56f 55f
12:00am 9 13 mph 1009.4mb 56f 55f
Sun 09/17 11:54pm 9 13 mph 1009.5mb 56f 55f
11:48pm 9 11 mph 1009.5mb 56f 55f
11:36pm 8 10 mph 1009.5mb 56f 55f
11:30pm 7 9 mph 1009.5mb 56f 54f
11:24pm 7 9 mph 1009.5mb 56f 54f
11:18pm 8 10 mph 1009.5mb 56f 54f
11:12pm 8 10 mph 1009.5mb 56f 54f
11:06pm 8 10 mph 1009.6mb 56f 54f
11:00pm 8 9 mph 1009.6mb 56f 54f
10:54pm 8 10 mph 1009.6mb 56f 54f
10:48pm 9 10 mph 1009.6mb 56f 55f
10:36pm 7 9 mph 1009.6mb 56f 54f
10:30pm 7 8 mph 1009.6mb 55f 55f
10:24pm 7 9 mph 1009.6mb 55f 55f
10:18pm 7 10 mph 1009.6mb 55f 55f
10:12pm 8 11 mph 1009.6mb 55f 55f
10:06pm 10 13 mph 1009.6mb 55f 55f
10:00pm 10 14 mph 1009.7mb 55f 55f
9:54pm 11 14 mph 1009.7mb 55f 55f
9:48pm 10 13 mph 1009.7mb 55f 55f
9:36pm 11 16 mph 1009.7mb 55f 55f
9:30pm 10 16 mph 1009.8mb 55f 55f
9:24pm 10 14 mph 1009.9mb 55f 55f
9:18pm 10 13 mph 1009.9mb 55f 55f
9:12pm 11 14 mph 1009.8mb 55f 55f
9:06pm 9 13 mph 1009.7mb 55f 55f
9:00pm 9 11 mph 1009.7mb 55f 55f
8:54pm 9 11 mph 1009.7mb 56f 55f
8:48pm 9 11 mph 1009.7mb 56f 55f
8:36pm 8 11 mph 1009.5mb 56f 55f
8:30pm 9 11 mph 1009.5mb 56f 55f
8:24pm 10 11 mph 1009.5mb 56f 55f
8:18pm 8 11 mph 1009.4mb 56f 55f
8:12pm 8 11 mph 1009.3mb 56f 55f
8:06pm 10 14 mph 1009.4mb 56f 55f
8:00pm 11 15 mph 1009.4mb 56f 55f
7:54pm 10 13 mph 1009.3mb 56f 54f
7:48pm 10 14 mph 1009.3mb 56f 54f
7:36pm 11 14 mph 1009.1mb 56f 54f
7:30pm 9 14 mph 1009.1mb 56f 54f
7:24pm 11 14 mph 1009.1mb 56f 54f
7:18pm 10 13 mph 1009mb 56f 55f
7:12pm 10 13 mph 1009.1mb 56f 55f
7:06pm 9 11 mph 1009.1mb 56f 55f
7:00pm 11 13 mph 1009.2mb 56f 55f
6:54pm 10 13 mph 1009.2mb 56f 55f
6:36pm 8 9 mph 1009.2mb 57f 55f
6:30pm 7 9 mph 1009.2mb 57f 55f
6:24pm 8 9 mph 1009.3mb 57f 55f
6:18pm 7 9 mph 1009.2mb 57f 55f
6:12pm 7 8 mph 1009.1mb 57f 55f
6:06pm 6 7 mph 1009.1mb 57f 56f
6:00pm 6 8 mph 1009.1mb 57f 56f
5:54pm 6 8 mph 1009.2mb 57f 56f
5:48pm 7 8 mph 1009.2mb 57f 56f
5:36pm 7 8 mph 1009.2mb 57f 55f
5:30pm 6 7 mph 1009.1mb 57f 55f
5:24pm 6 7 mph 1009.1mb 57f 55f
5:18pm 6 7 mph 1009mb 57f 56f
5:12pm 3 5 mph 1008.9mb 57f 56f
5:06pm 3 5 mph 1008.7mb 57f 56f
5:00pm 5 6 mph 1008.7mb 57f 56f
4:54pm 6 7 mph 1008.7mb 57f 56f
4:48pm 6 9 mph 1008.6mb 56f 55f
4:36pm 9 13 mph 1008.6mb 56f 55f
4:30pm 8 9 mph 1008.6mb 56f 54f
4:24pm 7 9 mph 1008.5mb 56f 54f
4:18pm 8 10 mph 1008.4mb 56f 53f
4:12pm 8 11 mph 1008.4mb 56f 53f
4:06pm 8 10 mph 1008.5mb 56f 53f
4:00pm 9 11 mph 1008.5mb 55f 53f
3:54pm 9 11 mph 1008.5mb 55f 53f
3:48pm 9 10 mph 1008.6mb 55f 53f
3:36pm 8 10 mph 1008.8mb 55f 53f
3:30pm 10 15 mph 1008.9mb 55f 53f
3:24pm 11 15 mph 1008.7mb 55f 53f
3:18pm 14 16 mph 1008.9mb 55f 53f
3:12pm 10 13 mph 1009.1mb 55f 53f
3:06pm 7 13 mph 1009.2mb 55f 53f
3:00pm 6 13 mph 1009.2mb 55f 53f
2:54pm 13 20 mph 1009mb 54f 53f
2:48pm 20 22 mph 1008.7mb 54f 53f
2:36pm 21 34 mph 1007.9mb 54f 55f
2:30pm 23 34 mph 1007.8mb 54f 55f
2:24pm 23 36 mph 1007.7mb 54f 55f
2:18pm 24 37 mph 1007.6mb 54f 55f
2:12pm 22 34 mph 1007.5mb 54f 55f
2:06pm 23 37 mph 1007.4mb 53f 55f
2:00pm 25 36 mph 1007.4mb 54f 55f
1:54pm 22 33 mph 1007.6mb 54f 56f
1:48pm 21 34 mph 1007.6mb 54f 55f
1:36pm 22 33 mph 1007.8mb 54f 56f
1:30pm 23 36 mph 1007.8mb 54f 56f
1:24pm 22 38 mph 1007.8mb 55f 56f
1:18pm 20 31 mph 1008mb 55f 56f
1:12pm 21 31 mph 1008.1mb 55f 56f
1:06pm 20 31 mph 1008.2mb 55f 56f
1:00pm 21 32 mph 1008.3mb 55f 56f
12:54pm 22 33 mph 1008.3mb 55f 56f
12:48pm 22 33 mph 1008.4mb 55f 56f
12:36pm 17 32 mph 1008.4mb 55f 56f
12:30pm 18 36 mph 1008.4mb 55f 56f
12:24pm 20 32 mph 1008.4mb 55f 56f
12:18pm 23 32 mph 1008.5mb 55f 56f
12:12pm 18 30 mph 1008.7mb 55f 56f
12:06pm 18 31 mph 1009mb 55f 56f
12:00pm 17 31 mph 1009mb 55f 56f
11:54am 16 28 mph 1009.1mb 55f 56f
11:36am 18 28 mph 1009.1mb 55f 57f
11:30am 17 23 mph 1009.1mb 55f 57f
11:24am 14 20 mph 1009.1mb 55f 57f
11:18am 15 22 mph 1009.2mb 56f 57f
11:12am 15 22 mph 1009.3mb 56f 57f
11:06am 15 22 mph 1009.3mb 56f 57f
11:00am 20 25 mph 1009.4mb 57f 57f
10:54am 14 24 mph 1009.4mb 57f 58f
10:36am 10 22 mph 1009.7mb 56f 59f
10:30am 14 20 mph 1009.8mb 57f 58f
10:24am 14 18 mph 1009.8mb 57f 58f
10:18am 14 22 mph 1009.8mb 57f 58f
10:12am 10 17 mph 1009.8mb 57f 58f
10:06am 13 18 mph 1010mb 57f 58f
10:00am 16 24 mph 1010mb 57f 58f
9:54am 9 17 mph 1010.1mb 57f 58f
9:48am 13 20 mph 1010.2mb 57f 58f
9:36am 11 18 mph 1010.1mb 57f 57f
9:30am 11 17 mph 1010.2mb 57f 57f
9:24am 11 20 mph 1010.2mb 57f 57f
9:18am 11 20 mph 1010.1mb 57f 57f
9:12am 14 21 mph 1010.1mb 57f 56f
9:06am 13 20 mph 1010.1mb 56f 56f
9:00am 10 24 mph 1010.2mb 56f 56f
8:54am 16 24 mph 1010.3mb 56f 56f
8:48am 13 18 mph 1010.4mb 56f 56f
8:36am 14 22 mph 1010.5mb 56f 56f
8:30am 14 20 mph 1010.6mb 56f 56f
8:24am 13 18 mph 1010.6mb 56f 56f
8:18am 11 20 mph 1010.6mb 56f 56f
8:12am 11 17 mph 1011mb 56f 56f
8:06am 10 14 mph 1011.1mb 56f 56f
8:00am 10 17 mph 1011mb 56f 56f
7:54am 10 17 mph 1010.9mb 56f 56f
7:48am 11 17 mph 1010.9mb 56f 56f
7:36am 11 16 mph 1011.2mb 56f 56f
7:30am 9 17 mph 1011.3mb 56f 56f
7:24am 11 17 mph 1011.3mb 56f 56f
7:18am 11 17 mph 1011.2mb 56f 55f
7:12am 9 15 mph 1011.1mb 56f 55f
7:06am 10 13 mph 1011.2mb 56f 55f
7:00am 10 15 mph 1011.2mb 56f 55f
6:54am 10 14 mph 1011.3mb 56f 55f
6:48am 9 13 mph 1011.4mb 56f 55f
6:36am 9 11 mph 1011.6mb 56f 55f
6:30am 9 14 mph 1011.6mb 56f 55f
6:24am 8 10 mph 1011.5mb 56f 55f
6:18am 8 14 mph 1011.5mb 56f 55f
6:12am 10 14 mph 1011.3mb 57f 55f
6:06am 9 14 mph 1011.4mb 57f 55f
6:00am 9 13 mph 1011.4mb 57f 55f
5:54am 10 13 mph 1011.4mb 57f 55f
5:48am 9 13 mph 1011.4mb 57f 55f
5:36am 10 14 mph 1011.7mb 57f 55f
5:30am 9 14 mph 1011.8mb 57f 55f
5:24am 7 11 mph 1011.9mb 57f 55f
5:18am 9 14 mph 1011.8mb 57f 55f
5:12am 8 13 mph 1011.7mb 57f 55f
5:06am 9 13 mph 1011.6mb 57f 55f
5:00am 7 11 mph 1011.6mb 57f 55f
4:54am 7 11 mph 1011.7mb 57f 55f
4:48am 7 10 mph 1011.6mb 57f 55f
4:36am 7 9 mph 1011.6mb 56f 55f
4:30am 6 8 mph 1011.7mb 56f 55f
4:24am 5 10 mph 1011.7mb 56f 55f
4:18am 6 9 mph 1011.6mb 56f 55f
4:12am 8 10 mph 1011.7mb 57f 55f
4:06am 8 10 mph 1011.8mb 57f 55f
4:00am 7 9 mph 1012mb 58f 55f
3:54am 7 9 mph 1012.1mb 58f 54f
3:48am 7 9 mph 1012.2mb 57f 54f
3:36am 7 9 mph 1012.4mb 57f 54f
3:30am 7 9 mph 1012.4mb 57f 54f
3:24am 7 10 mph 1012.5mb 57f 54f
3:18am 8 10 mph 1012.5mb 56f 53f
3:12am 7 10 mph 1012.5mb 56f 53f
3:06am 9 10 mph 1012.6mb 56f 53f
3:00am 8 10 mph 1012.7mb 56f 53f
2:54am 8 9 mph 1012.7mb 56f 53f
2:48am 7 8 mph 1012.7mb 56f 53f
2:36am 6 8 mph 1012.7mb 56f 53f
2:30am 6 8 mph 1012.6mb 56f 53f
2:24am 7 9 mph 1012.6mb 56f 53f
2:18am 6 8 mph 1012.7mb 56f 53f
2:12am 7 9 mph 1012.7mb 56f 54f
2:06am 8 9 mph 1012.8mb 56f 54f
2:00am 7 10 mph 1012.8mb 56f 54f
1:54am 7 9 mph 1012.8mb 55f 55f
1:48am 8 9 mph 1012.8mb 55f 55f
1:36am 7 8 mph 1012.7mb 55f 55f
1:30am 8 9 mph 1012.8mb 55f 55f
1:24am 8 9 mph 1012.8mb 55f 55f
1:18am 7 8 mph 1012.7mb 55f 55f
1:12am 6 8 mph 1012.7mb 55f 55f
1:06am 7 8 mph 1012.9mb 55f 55f
1:00am 7 8 mph 1012.9mb 55f 55f
12:54am 6 6 mph 1012.8mb 55f 55f
12:48am 6 7 mph 1012.8mb 55f 55f
12:36am 7 8 mph 1013.1mb 55f 55f
12:30am 6 7 mph 1012.9mb 55f 55f
12:24am 6 6 mph 1013.1mb 56f 55f
12:18am 5 6 mph 1013.1mb 56f 55f
12:12am 6 7 mph 1013.2mb 56f 55f
12:06am 6 7 mph 1013.2mb 56f 55f
12:00am 6 8 mph 1013.3mb 56f 55f
Sat 09/16 11:54pm 8 9 mph 1013.4mb 56f 56f
11:48pm 8 9 mph 1013.4mb 56f 55f
11:36pm 7 8 mph 1013.4mb 56f 56f
11:30pm 8 8 mph 1013.4mb 56f 56f
11:24pm 8 8 mph 1013.4mb 56f 55f
11:18pm 7 8 mph 1013.4mb 56f 55f
11:12pm 8 13 mph 1013.4mb 55f 55f
11:06pm 13 17 mph 1013.7mb 55f 55f
11:00pm 14 16 mph 1013.6mb 55f 55f
10:54pm 9 11 mph 1013.3mb 55f 55f